createdAt,value
2023-05-18T00:02:16.114Z,5.17
2023-05-18T00:04:52.414Z,6.20
2023-05-18T00:07:30.123Z,5.17
2023-05-18T00:10:07.279Z,5.30
2023-05-18T00:12:43.278Z,5.60
2023-05-18T00:15:19.461Z,5.87
2023-05-18T00:17:57.065Z,6.43
2023-05-18T00:20:34.676Z,6.33
2023-05-18T00:23:16.550Z,6.13
2023-05-18T00:25:52.517Z,6.47
2023-05-18T00:28:29.235Z,6.67
2023-05-18T00:31:06.449Z,5.37
2023-05-18T00:33:42.730Z,5.40
2023-05-18T00:36:18.648Z,5.80
2023-05-18T00:38:55.050Z,5.70
2023-05-18T00:41:31.876Z,5.20
2023-05-18T00:44:08.985Z,5.67
2023-05-18T00:46:44.895Z,5.67
2023-05-18T00:49:21.280Z,6.13
2023-05-18T00:51:57.609Z,6.27
2023-05-18T00:54:35.511Z,6.03
2023-05-18T00:57:11.487Z,5.00
2023-05-18T00:59:47.771Z,5.60
2023-05-18T01:02:24.367Z,5.63
2023-05-18T01:05:00.683Z,5.67
2023-05-18T01:07:38.557Z,5.80
2023-05-18T01:10:17.660Z,5.00
2023-05-18T01:13:13.339Z,5.10
2023-05-18T01:15:54.654Z,6.43
2023-05-18T01:18:54.914Z,5.27
2023-05-18T01:21:57.633Z,5.60
2023-05-18T01:24:49.025Z,5.80
2023-05-18T01:27:25.768Z,6.00
2023-05-18T01:30:03.278Z,5.83
2023-05-18T01:32:42.756Z,5.73
2023-05-18T01:35:18.821Z,6.37
2023-05-18T01:37:54.741Z,6.13
2023-05-18T01:40:43.903Z,6.53
2023-05-18T01:43:23.755Z,6.70
2023-05-18T01:46:22.883Z,6.13
2023-05-18T01:49:17.255Z,6.93
2023-05-18T01:51:56.554Z,6.57
2023-05-18T01:54:36.516Z,6.50
2023-05-18T01:57:15.727Z,6.20
2023-05-18T01:59:52.114Z,5.80
2023-05-18T02:02:28.911Z,5.97
2023-05-18T02:05:07.493Z,6.90
2023-05-18T02:07:44.150Z,6.73
2023-05-18T02:10:20.289Z,6.03
2023-05-18T02:12:56.620Z,6.10
2023-05-18T02:15:32.762Z,7.00
2023-05-18T02:18:08.892Z,6.53
2023-05-18T02:20:48.913Z,6.63
2023-05-18T02:23:24.909Z,6.87
2023-05-18T02:26:00.819Z,6.40
2023-05-18T02:28:40.372Z,7.47
2023-05-18T02:31:16.344Z,6.37
2023-05-18T02:33:52.328Z,7.17
2023-05-18T02:36:28.430Z,7.00
2023-05-18T02:39:04.973Z,6.73
2023-05-18T02:41:40.953Z,7.37
2023-05-18T02:44:16.932Z,6.90
2023-05-18T02:46:52.849Z,6.70
2023-05-18T02:49:28.815Z,6.13
2023-05-18T02:52:05.224Z,7.13
2023-05-18T02:54:41.318Z,6.63
2023-05-18T02:57:23.889Z,6.63
2023-05-18T03:00:16.789Z,7.20
2023-05-18T03:02:57.669Z,7.30
2023-05-18T03:05:33.715Z,7.33
2023-05-18T03:08:10.316Z,7.57
2023-05-18T03:10:46.289Z,7.00
2023-05-18T03:13:23.230Z,7.80
2023-05-18T03:15:59.192Z,7.47
2023-05-18T03:18:35.289Z,7.93
2023-05-18T03:21:13.572Z,7.20
2023-05-18T03:23:49.513Z,7.40
2023-05-18T03:26:26.245Z,7.30
2023-05-18T03:29:02.811Z,7.77
2023-05-18T03:31:39.756Z,7.60
2023-05-18T03:34:16.088Z,7.23
2023-05-18T03:36:54.803Z,7.90
2023-05-18T03:39:30.712Z,7.60
2023-05-18T03:42:06.840Z,7.53
2023-05-18T03:44:43.193Z,7.13
2023-05-18T03:47:19.129Z,6.93
2023-05-18T03:49:55.027Z,7.67
2023-05-18T03:52:34.223Z,7.37
2023-05-18T03:55:11.381Z,7.20
2023-05-18T03:57:49.054Z,8.03
2023-05-18T04:00:25.305Z,7.90
2023-05-18T04:03:03.215Z,7.60
2023-05-18T04:05:39.839Z,7.60
2023-05-18T04:08:15.768Z,7.33
2023-05-18T04:10:52.184Z,7.90
2023-05-18T04:13:28.233Z,6.93
2023-05-18T04:16:04.417Z,7.50
2023-05-18T04:18:41.850Z,6.83
2023-05-18T04:21:19.382Z,7.07
2023-05-18T04:23:55.883Z,7.10
2023-05-18T04:26:36.433Z,6.83
2023-05-18T04:29:13.312Z,6.73
2023-05-18T04:31:49.297Z,7.03
2023-05-18T04:34:26.540Z,6.50
2023-05-18T04:37:05.927Z,6.73
2023-05-18T04:39:42.268Z,6.27
2023-05-18T04:42:20.725Z,6.73
2023-05-18T04:44:57.478Z,6.73
2023-05-18T04:47:34.015Z,7.27
2023-05-18T04:50:10.436Z,10.03
2023-05-18T04:52:48.965Z,9.40
2023-05-18T04:55:27.869Z,8.27
2023-05-18T04:58:06.702Z,7.90
2023-05-18T05:00:43.123Z,7.20
2023-05-18T05:03:20.045Z,6.43
2023-05-18T05:05:56.111Z,6.90
2023-05-18T05:08:34.947Z,6.37
2023-05-18T05:11:10.988Z,5.97
2023-05-18T05:13:46.936Z,6.50
2023-05-18T05:16:23.156Z,6.70
2023-05-18T05:18:59.252Z,4.90
2023-05-18T05:21:36.166Z,5.60
2023-05-18T05:24:12.775Z,6.10
2023-05-18T05:26:50.052Z,6.23
2023-05-18T05:29:26.889Z,5.00
2023-05-18T05:32:03.878Z,5.57
2023-05-18T05:34:40.783Z,4.73
2023-05-18T05:37:18.892Z,5.00
2023-05-18T05:39:56.678Z,4.80
2023-05-18T05:42:33.163Z,4.97
2023-05-18T05:45:09.776Z,4.67
2023-05-18T05:47:58.727Z,4.77
2023-05-18T05:50:35.062Z,3.80
2023-05-18T05:53:12.812Z,3.80
2023-05-18T05:55:49.303Z,3.90
2023-05-18T05:58:26.942Z,3.50
2023-05-18T06:01:08.517Z,4.00
2023-05-18T06:03:45.426Z,3.47
2023-05-18T06:06:22.573Z,4.10
2023-05-18T06:08:58.602Z,4.00
2023-05-18T06:11:34.871Z,3.70
2023-05-18T06:14:11.026Z,5.87
2023-05-18T06:16:47.929Z,5.43
2023-05-18T06:19:24.537Z,4.33
2023-05-18T06:22:01.406Z,3.70
2023-05-18T06:24:42.536Z,2.73
2023-05-18T06:27:40.183Z,3.47
2023-05-18T06:30:45.229Z,3.37
2023-05-18T06:33:26.490Z,3.80
2023-05-18T06:36:03.100Z,3.43
2023-05-18T06:38:39.677Z,3.20
2023-05-18T06:41:15.964Z,3.63
2023-05-18T06:43:52.418Z,3.23
2023-05-18T06:46:31.431Z,3.13
2023-05-18T06:49:10.560Z,2.57
2023-05-18T06:51:46.594Z,2.37
2023-05-18T06:54:23.272Z,3.23
2023-05-18T06:56:59.618Z,2.67
2023-05-18T06:59:35.892Z,2.73
2023-05-18T07:02:12.054Z,2.67
2023-05-18T07:04:49.832Z,2.37
2023-05-18T07:07:26.958Z,2.90
2023-05-18T07:10:04.409Z,3.50
2023-05-18T07:12:40.408Z,2.90
2023-05-18T07:15:16.518Z,2.40
2023-05-18T07:17:52.855Z,2.33
2023-05-18T07:20:29.050Z,2.83
2023-05-18T07:23:05.019Z,2.53
2023-05-18T07:25:41.253Z,3.10
2023-05-18T07:28:17.667Z,2.60
2023-05-18T07:30:53.793Z,3.07
2023-05-18T07:33:29.957Z,2.43
2023-05-18T07:36:06.334Z,2.70
2023-05-18T07:38:42.726Z,2.87
2023-05-18T07:41:18.726Z,2.20
2023-05-18T07:43:54.835Z,2.27
2023-05-18T07:46:31.617Z,2.77
2023-05-18T07:49:07.736Z,2.50
2023-05-18T07:51:44.121Z,2.60
2023-05-18T07:54:20.441Z,2.60
2023-05-18T07:56:58.526Z,2.93
2023-05-18T07:59:35.953Z,2.67
2023-05-18T08:02:12.290Z,2.53
2023-05-18T08:04:48.495Z,2.27
2023-05-18T08:07:26.469Z,2.60
2023-05-18T08:10:02.813Z,3.30
2023-05-18T08:12:38.855Z,2.87
2023-05-18T08:15:15.026Z,2.13
2023-05-18T08:17:52.353Z,3.00
2023-05-18T08:20:31.225Z,2.57
2023-05-18T08:23:07.293Z,2.90
2023-05-18T08:25:43.349Z,3.30
2023-05-18T08:28:19.551Z,2.67
2023-05-18T08:30:56.795Z,2.67
2023-05-18T08:33:32.821Z,2.27
2023-05-18T08:36:09.354Z,2.20
2023-05-18T08:38:45.431Z,2.43
2023-05-18T08:41:31.093Z,2.60
2023-05-18T08:44:16.381Z,2.60
2023-05-18T08:46:53.703Z,2.20
2023-05-18T08:49:31.972Z,2.00
2023-05-18T08:52:09.240Z,2.97
2023-05-18T08:54:46.227Z,2.10
2023-05-18T08:57:23.473Z,2.20
2023-05-18T09:00:02.155Z,2.50
2023-05-18T09:02:40.909Z,2.40
2023-05-18T09:05:18.535Z,2.07
2023-05-18T09:07:56.280Z,2.50
2023-05-18T09:10:33.909Z,2.17
2023-05-18T09:13:11.330Z,2.17
2023-05-18T09:15:47.706Z,2.13
2023-05-18T09:18:25.591Z,2.23
2023-05-18T09:21:03.075Z,2.40
2023-05-18T09:23:41.407Z,1.80
2023-05-18T09:26:19.219Z,2.67
2023-05-18T09:28:55.516Z,2.10
2023-05-18T09:31:31.900Z,2.10
2023-05-18T09:34:08.068Z,2.43
2023-05-18T09:36:49.902Z,2.30
2023-05-18T09:39:25.915Z,2.23
2023-05-18T09:42:04.258Z,2.50
2023-05-18T09:44:41.472Z,2.17
2023-05-18T09:47:17.986Z,2.17
2023-05-18T09:49:57.806Z,2.43
2023-05-18T09:52:44.997Z,2.40
2023-05-18T09:55:21.299Z,1.80
2023-05-18T09:57:57.725Z,2.33
2023-05-18T10:00:41.411Z,2.70
2023-05-18T10:03:23.444Z,2.13
2023-05-18T10:06:10.613Z,2.57
2023-05-18T10:08:46.739Z,2.27
2023-05-18T10:11:23.380Z,2.00
2023-05-18T10:13:59.501Z,2.30
2023-05-18T10:16:35.716Z,2.20
2023-05-18T10:19:13.035Z,2.50
2023-05-18T10:21:50.941Z,2.27
2023-05-18T10:24:27.846Z,2.20
2023-05-18T10:27:09.345Z,2.23
2023-05-18T10:29:46.516Z,2.23
2023-05-18T10:32:25.448Z,2.50
2023-05-18T10:35:02.519Z,2.37
2023-05-18T10:37:42.099Z,1.97
2023-05-18T10:40:19.922Z,2.40
2023-05-18T10:42:58.746Z,1.57
2023-05-18T10:45:37.311Z,2.43
2023-05-18T10:48:15.215Z,1.97
2023-05-18T10:50:53.838Z,1.70
2023-05-18T10:53:29.969Z,2.77
2023-05-18T10:56:07.813Z,2.87
2023-05-18T10:58:45.114Z,2.43
2023-05-18T11:01:21.278Z,3.27
2023-05-18T11:03:57.313Z,2.37
2023-05-18T11:06:35.061Z,1.80
2023-05-18T11:09:23.689Z,2.60
2023-05-18T11:12:00.350Z,2.23
2023-05-18T11:14:36.414Z,1.90
2023-05-18T11:17:20.612Z,2.73
2023-05-18T11:20:09.022Z,2.13
2023-05-18T11:22:52.677Z,2.13
2023-05-18T11:25:28.955Z,2.70
2023-05-18T11:28:09.706Z,2.03
2023-05-18T11:30:48.343Z,2.17
2023-05-18T11:33:32.476Z,1.60
2023-05-18T11:36:14.466Z,2.03
2023-05-18T11:39:11.192Z,1.83
2023-05-18T11:42:11.561Z,1.90
2023-05-18T11:44:55.986Z,1.93
2023-05-18T11:47:32.163Z,1.93
2023-05-18T11:50:14.735Z,3.80
2023-05-18T11:52:53.206Z,1.93
2023-05-18T11:55:38.998Z,1.63
2023-05-18T11:58:19.064Z,2.03
2023-05-18T12:00:56.120Z,1.87
2023-05-18T12:03:32.747Z,1.70
2023-05-18T12:06:08.677Z,2.03
2023-05-18T12:08:46.056Z,2.17
2023-05-18T12:11:22.187Z,2.50
2023-05-18T12:13:58.505Z,1.80
2023-05-18T12:16:36.859Z,1.80
2023-05-18T12:19:12.873Z,1.70
2023-05-18T12:21:48.815Z,1.87
2023-05-18T12:24:24.711Z,1.90
2023-05-18T12:27:06.819Z,1.83
2023-05-18T12:29:43.454Z,1.77
2023-05-18T12:32:19.691Z,1.50
2023-05-18T12:34:55.664Z,1.47
2023-05-18T12:37:44.136Z,1.80
2023-05-18T12:40:20.709Z,2.00
2023-05-18T12:43:05.131Z,1.50
2023-05-18T12:45:43.948Z,1.83
2023-05-18T12:48:19.984Z,1.90
2023-05-18T12:50:56.362Z,1.60
2023-05-18T12:53:50.833Z,1.80
2023-05-18T12:56:26.838Z,1.60
2023-05-18T12:59:04.460Z,1.67
2023-05-18T13:01:44.031Z,2.00
2023-05-18T13:04:20.191Z,1.77
2023-05-18T13:06:56.979Z,1.63
2023-05-18T13:09:32.878Z,2.00
2023-05-18T13:12:08.987Z,1.63
2023-05-18T13:14:45.016Z,1.57
2023-05-18T13:17:24.067Z,1.80
2023-05-18T13:20:00.093Z,1.53
2023-05-18T13:22:36.052Z,1.40
2023-05-18T13:25:11.947Z,2.10
2023-05-18T13:27:49.566Z,1.90
2023-05-18T13:30:25.639Z,1.40
2023-05-18T13:33:01.605Z,2.10
2023-05-18T13:35:40.316Z,1.97
2023-05-18T13:38:16.283Z,1.70
2023-05-18T13:40:52.255Z,2.63
2023-05-18T13:43:28.171Z,2.27
2023-05-18T13:46:04.273Z,1.63
2023-05-18T13:48:40.156Z,1.70
2023-05-18T13:51:16.264Z,1.60
2023-05-18T13:53:52.218Z,1.70
2023-05-18T13:56:28.201Z,1.30
2023-05-18T13:59:04.092Z,1.50
2023-05-18T14:01:42.404Z,1.73
2023-05-18T14:04:18.478Z,1.40
2023-05-18T14:06:55.913Z,1.50
2023-05-18T14:09:31.828Z,1.40
2023-05-18T14:12:10.265Z,1.40
2023-05-18T14:14:46.198Z,1.53
2023-05-18T14:17:22.318Z,1.60
2023-05-18T14:19:58.983Z,1.60
2023-05-18T14:22:35.206Z,2.23
2023-05-18T14:25:11.463Z,1.40
2023-05-18T14:27:47.413Z,1.30
2023-05-18T14:30:23.454Z,1.63
2023-05-18T14:33:01.354Z,1.33
2023-05-18T14:35:37.976Z,1.40
2023-05-18T14:38:13.898Z,1.40
2023-05-18T14:40:49.780Z,1.40
2023-05-18T14:43:26.022Z,1.90
2023-05-18T14:46:08.559Z,1.47
2023-05-18T14:48:45.030Z,1.60
2023-05-18T14:51:22.048Z,1.40
2023-05-18T14:53:58.113Z,1.20
2023-05-18T14:56:34.102Z,1.30
2023-05-18T14:59:10.035Z,1.30
2023-05-18T15:01:46.876Z,1.30
2023-05-18T15:04:23.592Z,1.87
2023-05-18T15:06:59.560Z,1.60
2023-05-18T15:09:35.669Z,1.50
2023-05-18T15:12:11.663Z,1.47
2023-05-18T15:14:47.520Z,1.50
2023-05-18T15:17:24.184Z,1.50
2023-05-18T15:20:00.537Z,1.50
2023-05-18T15:22:38.321Z,1.67
2023-05-18T15:25:14.216Z,1.30
2023-05-18T15:27:50.278Z,1.70
2023-05-18T15:30:28.641Z,1.50
2023-05-18T15:33:06.340Z,2.40
2023-05-18T15:35:42.285Z,1.63
2023-05-18T15:38:18.151Z,1.47
2023-05-18T15:40:54.083Z,1.40
2023-05-18T15:43:31.081Z,1.30
2023-05-18T15:46:07.294Z,1.60
2023-05-18T15:48:43.583Z,1.70
2023-05-18T15:51:19.643Z,1.50
2023-05-18T15:54:01.810Z,1.40
2023-05-18T15:56:40.980Z,1.33
2023-05-18T15:59:16.974Z,1.30
2023-05-18T16:01:53.393Z,1.40
2023-05-18T16:04:29.631Z,1.43
2023-05-18T16:07:06.825Z,1.30
2023-05-18T16:09:42.907Z,1.37
2023-05-18T16:12:20.209Z,1.20
2023-05-18T16:14:56.635Z,1.53
2023-05-18T16:17:32.680Z,1.50
2023-05-18T16:20:09.876Z,1.30
2023-05-18T16:22:46.839Z,1.33
2023-05-18T16:25:24.049Z,1.30
2023-05-18T16:28:00.459Z,1.40
2023-05-18T16:30:37.872Z,1.57
2023-05-18T16:33:14.062Z,1.50
2023-05-18T16:35:50.298Z,1.70
2023-05-18T16:38:26.437Z,1.33
2023-05-18T16:41:07.084Z,1.20
2023-05-18T16:43:43.747Z,1.70
2023-05-18T16:46:20.118Z,1.30
2023-05-18T16:48:56.278Z,1.60
2023-05-18T16:51:32.494Z,1.40
2023-05-18T16:54:08.669Z,1.50
2023-05-18T16:56:44.781Z,1.50
2023-05-18T16:59:22.627Z,1.70
2023-05-18T17:01:58.979Z,1.67
2023-05-18T17:04:36.813Z,1.70
2023-05-18T17:07:13.509Z,1.50
2023-05-18T17:09:49.681Z,1.50
2023-05-18T17:12:25.925Z,1.50
2023-05-18T17:15:05.629Z,1.50
2023-05-18T17:17:43.173Z,1.60
2023-05-18T17:20:19.377Z,1.17
2023-05-18T17:22:55.453Z,1.10
2023-05-18T17:25:31.665Z,1.50
2023-05-18T17:28:07.861Z,1.50
2023-05-18T17:30:43.920Z,1.40
2023-05-18T17:33:19.957Z,1.60
2023-05-18T17:35:56.005Z,1.30
2023-05-18T17:38:32.046Z,1.47
2023-05-18T17:41:08.411Z,1.30
2023-05-18T17:43:44.433Z,2.20
2023-05-18T17:46:20.565Z,1.50
2023-05-18T17:48:56.885Z,2.00
2023-05-18T17:51:33.535Z,1.87
2023-05-18T17:54:09.927Z,1.80
2023-05-18T17:56:46.657Z,2.03
2023-05-18T17:59:22.966Z,1.40
2023-05-18T18:01:59.106Z,1.50
2023-05-18T18:04:35.176Z,1.60
2023-05-18T18:07:11.516Z,1.53
2023-05-18T18:09:50.632Z,1.87
2023-05-18T18:12:26.841Z,1.60
2023-05-18T18:15:02.778Z,1.70
2023-05-18T18:17:38.692Z,1.40
2023-05-18T18:20:14.702Z,1.33
2023-05-18T18:22:50.801Z,1.53
2023-05-18T18:25:26.781Z,1.70
2023-05-18T18:28:02.701Z,1.73
2023-05-18T18:30:38.669Z,1.40
2023-05-18T18:33:15.058Z,1.50
2023-05-18T18:35:51.725Z,1.50
2023-05-18T18:38:28.590Z,1.30
2023-05-18T18:41:05.100Z,1.40
2023-05-18T18:43:41.415Z,1.77
2023-05-18T18:46:17.391Z,1.50
2023-05-18T18:48:53.429Z,1.60
2023-05-18T18:51:29.340Z,1.53
2023-05-18T18:54:06.111Z,1.60
2023-05-18T18:56:43.978Z,1.90
2023-05-18T18:59:19.988Z,1.60
2023-05-18T19:01:56.220Z,1.70
2023-05-18T19:04:32.252Z,1.63
2023-05-18T19:07:08.324Z,1.77
2023-05-18T19:09:44.304Z,2.07
2023-05-18T19:12:20.240Z,1.60
2023-05-18T19:14:56.293Z,1.60
2023-05-18T19:17:32.369Z,1.40
2023-05-18T19:20:09.449Z,1.90
2023-05-18T19:22:45.520Z,1.40
2023-05-18T19:25:24.556Z,1.83
2023-05-18T19:28:00.766Z,1.93
2023-05-18T19:30:36.806Z,1.87
2023-05-18T19:33:12.935Z,1.90
2023-05-18T19:35:49.653Z,1.90
2023-05-18T19:38:25.843Z,1.63
2023-05-18T19:41:01.936Z,1.83
2023-05-18T19:43:37.882Z,2.07
2023-05-18T19:46:14.475Z,2.50
2023-05-18T19:48:50.767Z,2.50
2023-05-18T19:51:27.012Z,1.70
2023-05-18T19:54:03.782Z,2.30
2023-05-18T19:56:40.165Z,2.57
2023-05-18T19:59:16.370Z,2.20
2023-05-18T20:01:54.016Z,2.60
2023-05-18T20:07:10.587Z,2.80
2023-05-18T20:09:46.836Z,2.53
2023-05-18T20:12:22.868Z,2.80
2023-05-18T20:14:59.872Z,2.03
2023-05-18T20:17:37.870Z,2.37
2023-05-18T20:20:16.113Z,2.30
2023-05-18T20:22:52.047Z,2.20
2023-05-18T20:25:28.151Z,2.67
2023-05-18T20:28:07.346Z,2.93
2023-05-18T20:30:43.601Z,2.73
2023-05-18T20:33:20.384Z,2.93
2023-05-18T20:35:56.333Z,2.93
2023-05-18T20:38:32.346Z,2.70
2023-05-18T20:41:09.641Z,2.93
2023-05-18T20:43:45.978Z,3.20
2023-05-18T20:46:24.596Z,3.10
2023-05-18T20:49:00.538Z,2.70
2023-05-18T20:51:36.474Z,3.73
2023-05-18T20:54:12.455Z,3.10
2023-05-18T20:56:49.033Z,2.87
2023-05-18T20:59:24.989Z,2.80
2023-05-18T21:02:01.052Z,2.70
2023-05-18T21:04:37.050Z,2.90
2023-05-18T21:07:13.386Z,2.30
2023-05-18T21:09:49.676Z,2.57
2023-05-18T21:12:25.670Z,2.93
2023-05-18T21:15:02.850Z,2.43
2023-05-18T21:17:38.773Z,3.10
2023-05-18T21:20:14.848Z,2.83
2023-05-18T21:22:51.312Z,3.00
2023-05-18T21:25:27.562Z,2.43
2023-05-18T21:28:03.501Z,2.53
2023-05-18T21:30:39.364Z,2.20
2023-05-18T21:33:15.392Z,2.57
2023-05-18T21:35:51.434Z,2.27
2023-05-18T21:38:28.384Z,2.50
2023-05-18T21:41:04.350Z,2.47
2023-05-18T21:43:40.355Z,2.13
2023-05-18T21:46:16.316Z,2.50
2023-05-18T21:48:52.238Z,2.00
2023-05-18T21:51:31.170Z,2.20
2023-05-18T21:54:07.049Z,2.50
2023-05-18T21:56:43.177Z,1.97
2023-05-18T21:59:19.053Z,2.60
2023-05-18T22:01:55.083Z,1.97
2023-05-18T22:04:31.348Z,2.07
2023-05-18T22:07:07.333Z,2.07
2023-05-18T22:09:43.284Z,1.73
2023-05-18T22:12:20.814Z,2.40
2023-05-18T22:14:56.760Z,1.57
2023-05-18T22:17:32.669Z,1.77
2023-05-18T22:20:09.520Z,2.10
2023-05-18T22:22:45.520Z,1.57
2023-05-18T22:25:21.466Z,1.73
2023-05-18T22:27:57.391Z,1.50
2023-05-18T22:30:33.762Z,2.00
2023-05-18T22:33:09.821Z,2.00
2023-05-18T22:35:45.934Z,1.97
2023-05-18T22:38:21.944Z,2.47
2023-05-18T22:40:57.898Z,1.70
2023-05-18T22:43:33.789Z,1.70
2023-05-18T22:46:09.872Z,1.90
2023-05-18T22:48:45.794Z,1.63
2023-05-18T22:51:23.381Z,1.70
2023-05-18T22:53:59.654Z,2.10
2023-05-18T22:56:35.555Z,2.00
2023-05-18T22:59:11.856Z,1.80
2023-05-18T23:01:52.684Z,2.00
2023-05-18T23:04:28.662Z,1.97
2023-05-18T23:07:04.698Z,1.70
2023-05-18T23:09:40.578Z,1.50
2023-05-18T23:12:17.674Z,1.50
2023-05-18T23:14:55.750Z,1.53
2023-05-18T23:17:33.067Z,1.50
2023-05-18T23:20:11.350Z,1.70
2023-05-18T23:22:47.252Z,1.30
2023-05-18T23:25:23.500Z,1.80
2023-05-18T23:27:59.401Z,1.50
2023-05-18T23:30:35.314Z,1.60
2023-05-18T23:33:11.596Z,1.40
2023-05-18T23:35:48.836Z,1.90
2023-05-18T23:38:28.788Z,1.60
2023-05-18T23:41:05.405Z,1.73
2023-05-18T23:43:41.630Z,1.50
2023-05-18T23:46:18.088Z,1.70
2023-05-18T23:48:54.853Z,1.73
2023-05-18T23:51:35.719Z,1.43
2023-05-18T23:54:13.034Z,1.60
2023-05-18T23:56:50.624Z,1.40
2023-05-18T23:59:27.260Z,1.70
